createdAt,value
2018-09-22T00:02:25.768Z,3.93
2018-09-22T00:04:52.752Z,4.07
2018-09-22T00:07:19.692Z,4.70
2018-09-22T00:09:46.596Z,4.20
2018-09-22T00:12:13.517Z,1.83
2018-09-22T00:14:40.420Z,2.73
2018-09-22T00:17:07.361Z,4.50
2018-09-22T00:19:34.286Z,4.10
2018-09-22T00:22:01.304Z,2.27
2018-09-22T00:24:28.152Z,5.70
2018-09-22T00:26:55.080Z,5.40
2018-09-22T00:29:22.001Z,3.67
2018-09-22T00:31:48.917Z,4.90
2018-09-22T00:34:15.816Z,3.73
2018-09-22T00:36:42.725Z,5.93
2018-09-22T00:39:10.228Z,3.47
2018-09-22T00:41:37.144Z,5.13
2018-09-22T00:44:04.053Z,5.00
2018-09-22T00:46:31.007Z,4.43
2018-09-22T00:48:57.892Z,3.43
2018-09-22T00:51:24.816Z,5.13
2018-09-22T00:53:51.720Z,4.00
2018-09-22T00:56:18.716Z,4.70
2018-09-22T00:58:45.614Z,5.93
2018-09-22T01:01:12.503Z,6.30
2018-09-22T01:03:39.412Z,6.53
2018-09-22T01:06:06.704Z,4.23
2018-09-22T01:08:33.608Z,3.70
2018-09-22T01:11:00.506Z,4.17
2018-09-22T01:13:27.419Z,3.90
2018-09-22T01:15:54.376Z,3.73
2018-09-22T01:18:21.240Z,9.13
2018-09-22T01:20:48.161Z,4.63
2018-09-22T01:23:15.074Z,3.33
2018-09-22T01:25:41.964Z,5.47
2018-09-22T01:28:08.864Z,5.37
2018-09-22T01:30:35.756Z,5.83
2018-09-22T01:33:02.718Z,5.27
2018-09-22T01:35:29.616Z,5.60
2018-09-22T01:37:56.545Z,4.80
2018-09-22T01:40:23.457Z,4.20
2018-09-22T01:42:50.384Z,3.60
2018-09-22T01:45:17.320Z,6.10
2018-09-22T01:47:44.228Z,6.23
2018-09-22T01:50:11.144Z,5.33
2018-09-22T01:52:38.041Z,5.17
2018-09-22T01:55:04.960Z,3.90
2018-09-22T01:57:31.856Z,5.03
2018-09-22T01:59:58.754Z,3.63
2018-09-22T02:02:25.647Z,5.57
2018-09-22T02:04:52.552Z,4.73
2018-09-22T02:07:19.534Z,4.30
2018-09-22T02:09:46.474Z,6.40
2018-09-22T02:12:13.365Z,3.73
2018-09-22T02:14:40.278Z,5.80
2018-09-22T02:17:07.159Z,7.07
2018-09-22T02:19:34.072Z,6.70
2018-09-22T02:22:01.024Z,5.67
2018-09-22T02:24:27.917Z,7.87
2018-09-22T02:26:55.132Z,8.33
2018-09-22T02:29:22.031Z,7.50
2018-09-22T02:31:48.960Z,10.63
2018-09-22T02:34:16.050Z,6.77
2018-09-22T02:36:43.016Z,8.63
2018-09-22T02:39:10.731Z,8.13
2018-09-22T02:41:37.649Z,7.30
2018-09-22T02:44:04.601Z,6.33
2018-09-22T02:46:31.516Z,9.37
2018-09-22T02:48:58.424Z,6.53
2018-09-22T02:51:25.336Z,6.23
2018-09-22T02:53:52.238Z,8.27
2018-09-22T02:56:19.161Z,5.60
2018-09-22T02:58:46.061Z,7.43
2018-09-22T03:01:12.981Z,6.77
2018-09-22T03:03:39.896Z,6.10
2018-09-22T03:06:06.792Z,7.30
2018-09-22T03:08:33.703Z,8.27
2018-09-22T03:11:00.608Z,7.40
2018-09-22T03:13:27.557Z,8.83
2018-09-22T03:15:54.473Z,6.20
2018-09-22T03:18:21.379Z,9.57
2018-09-22T03:20:48.292Z,6.63
2018-09-22T03:23:15.204Z,6.53
2018-09-22T03:25:42.104Z,6.77
2018-09-22T03:28:09.030Z,6.43
2018-09-22T03:30:35.980Z,10.60
2018-09-22T03:33:02.898Z,8.37
2018-09-22T03:35:29.800Z,7.67
2018-09-22T03:37:56.780Z,8.47
2018-09-22T03:40:23.689Z,7.30
2018-09-22T03:42:50.673Z,10.67
2018-09-22T03:45:17.611Z,11.23
2018-09-22T03:47:44.516Z,5.87
2018-09-22T03:50:11.423Z,8.33
2018-09-22T03:52:38.317Z,9.67
2018-09-22T03:55:05.248Z,7.00
2018-09-22T03:57:32.148Z,14.87
2018-09-22T03:59:59.057Z,8.73
2018-09-22T04:02:25.973Z,7.13
2018-09-22T04:04:52.892Z,8.47
2018-09-22T04:07:19.805Z,13.80
2018-09-22T04:09:46.721Z,9.77
2018-09-22T04:12:13.682Z,12.63
2018-09-22T04:14:40.590Z,10.73
2018-09-22T04:17:07.499Z,13.37
2018-09-22T04:19:34.409Z,10.77
2018-09-22T04:22:01.322Z,10.00
2018-09-22T04:24:28.225Z,12.13
2018-09-22T04:26:55.135Z,10.27
2018-09-22T04:29:22.042Z,9.17
2018-09-22T04:31:49.261Z,8.33
2018-09-22T04:34:16.192Z,10.30
2018-09-22T04:36:43.579Z,10.17
2018-09-22T04:39:10.526Z,6.47
2018-09-22T04:41:38.510Z,7.13
2018-09-22T04:44:05.675Z,6.90
2018-09-22T04:46:32.806Z,7.37
2018-09-22T04:48:59.745Z,10.83
2018-09-22T04:51:26.986Z,10.30
2018-09-22T04:53:53.900Z,8.10
2018-09-22T04:56:20.848Z,6.27
2018-09-22T04:58:47.765Z,5.73
2018-09-22T05:01:14.687Z,8.40
2018-09-22T05:03:41.586Z,10.73
2018-09-22T05:06:08.490Z,6.97
2018-09-22T05:08:35.384Z,9.93
2018-09-22T05:11:02.427Z,9.93
2018-09-22T05:13:29.308Z,10.57
2018-09-22T05:15:56.232Z,8.20
2018-09-22T05:18:23.152Z,7.53
2018-09-22T05:20:50.146Z,7.87
2018-09-22T05:23:17.075Z,9.20
2018-09-22T05:25:44.004Z,8.27
2018-09-22T05:28:10.902Z,8.17
2018-09-22T05:30:37.832Z,10.43
2018-09-22T05:33:04.761Z,9.20
2018-09-22T05:35:31.726Z,12.37
2018-09-22T05:37:58.571Z,10.23
2018-09-22T05:40:25.480Z,8.63
2018-09-22T05:42:52.386Z,10.77
2018-09-22T05:45:19.272Z,11.73
2018-09-22T05:47:46.167Z,13.60
2018-09-22T05:50:13.067Z,10.40
2018-09-22T05:52:39.956Z,10.20
2018-09-22T05:55:06.884Z,11.50
2018-09-22T05:57:33.772Z,9.03
2018-09-22T06:00:00.684Z,12.73
2018-09-22T06:02:29.360Z,10.57
2018-09-22T06:04:56.516Z,13.80
2018-09-22T06:07:23.408Z,13.70
2018-09-22T06:09:50.333Z,8.93
2018-09-22T06:12:17.229Z,11.77
2018-09-22T06:14:44.138Z,10.33
2018-09-22T06:17:11.065Z,10.83
2018-09-22T06:19:37.963Z,10.20
2018-09-22T06:22:04.882Z,11.13
2018-09-22T06:24:31.877Z,9.33
2018-09-22T06:26:58.812Z,8.43
2018-09-22T06:29:25.716Z,7.53
2018-09-22T06:31:52.629Z,9.60
2018-09-22T06:34:19.508Z,11.07
2018-09-22T06:36:46.429Z,9.00
2018-09-22T06:39:13.333Z,7.70
2018-09-22T06:41:40.242Z,9.00
2018-09-22T06:44:07.252Z,6.40
2018-09-22T06:46:34.180Z,8.53
2018-09-22T06:49:01.113Z,10.60
2018-09-22T06:51:28.043Z,15.53
2018-09-22T06:53:54.939Z,8.47
2018-09-22T06:56:21.836Z,6.23
2018-09-22T06:58:48.712Z,13.10
2018-09-22T07:01:15.614Z,7.93
2018-09-22T07:03:42.554Z,6.63
2018-09-22T07:06:09.506Z,7.70
2018-09-22T07:08:36.412Z,9.93
2018-09-22T07:11:03.329Z,9.73
2018-09-22T07:13:30.245Z,5.87
2018-09-22T07:15:57.180Z,5.33
2018-09-22T07:18:24.104Z,7.73
2018-09-22T07:20:56.843Z,5.87
2018-09-22T07:23:23.729Z,7.40
2018-09-22T07:25:50.647Z,7.13
2018-09-22T07:28:17.542Z,7.63
2018-09-22T07:30:44.529Z,6.03
2018-09-22T07:33:11.384Z,9.50
2018-09-22T07:35:38.279Z,7.47
2018-09-22T07:38:05.292Z,6.83
2018-09-22T07:40:32.564Z,5.70
2018-09-22T07:42:59.483Z,5.13
2018-09-22T07:45:26.624Z,5.07
2018-09-22T07:47:53.619Z,6.57
2018-09-22T07:50:20.531Z,6.40
2018-09-22T07:52:47.425Z,5.90
2018-09-22T07:55:14.320Z,8.10
2018-09-22T07:57:41.237Z,7.37
2018-09-22T08:00:08.175Z,7.87
2018-09-22T08:02:35.084Z,5.67
2018-09-22T08:05:01.997Z,6.67
2018-09-22T08:07:28.917Z,7.43
2018-09-22T08:09:55.817Z,7.27
2018-09-22T08:12:22.751Z,6.93
2018-09-22T08:14:49.652Z,6.57
2018-09-22T08:17:16.556Z,6.37
2018-09-22T08:19:43.472Z,9.00
2018-09-22T08:22:10.388Z,7.17
2018-09-22T08:24:37.300Z,5.60
2018-09-22T08:27:04.437Z,5.40
2018-09-22T08:29:38.056Z,4.37
2018-09-22T08:32:05.186Z,5.87
2018-09-22T08:34:32.794Z,8.07
2018-09-22T08:36:59.894Z,6.03
2018-09-22T08:39:26.661Z,6.90
2018-09-22T08:41:53.573Z,5.10
2018-09-22T08:44:20.458Z,6.23
2018-09-22T08:46:47.395Z,7.33
2018-09-22T08:49:14.320Z,9.33
2018-09-22T08:51:41.229Z,6.87
2018-09-22T08:54:08.137Z,6.90
2018-09-22T08:56:35.052Z,9.97
2018-09-22T08:59:01.984Z,6.17
2018-09-22T09:01:28.900Z,8.00
2018-09-22T09:03:55.796Z,3.47
2018-09-22T09:06:22.697Z,5.20
2018-09-22T09:08:49.584Z,5.17
2018-09-22T09:11:16.526Z,3.60
2018-09-22T09:13:43.457Z,5.67
2018-09-22T09:16:10.293Z,4.87
2018-09-22T09:18:37.185Z,4.93
2018-09-22T09:21:04.148Z,5.07
2018-09-22T09:23:31.036Z,7.47
2018-09-22T09:25:57.945Z,4.10
2018-09-22T09:28:24.839Z,6.00
2018-09-22T09:30:51.848Z,5.57
2018-09-22T09:33:18.767Z,5.00
2018-09-22T09:35:45.680Z,3.87
2018-09-22T09:38:12.592Z,6.17
2018-09-22T09:40:39.460Z,7.60
2018-09-22T09:43:06.393Z,4.67
2018-09-22T09:45:33.331Z,10.60
2018-09-22T09:48:00.245Z,5.33
2018-09-22T09:50:27.183Z,6.57
2018-09-22T09:52:54.385Z,6.80
2018-09-22T09:55:23.371Z,4.43
2018-09-22T09:57:50.288Z,6.67
2018-09-22T10:00:21.812Z,7.57
2018-09-22T10:02:48.761Z,8.87
2018-09-22T10:05:17.807Z,7.37
2018-09-22T10:07:44.731Z,6.50
2018-09-22T10:10:11.617Z,8.60
2018-09-22T10:12:38.542Z,8.70
2018-09-22T10:15:05.467Z,5.43
2018-09-22T10:17:32.356Z,4.67
2018-09-22T10:19:59.255Z,7.53
2018-09-22T10:22:26.137Z,10.43
2018-09-22T10:24:53.024Z,7.37
2018-09-22T10:27:19.925Z,8.73
2018-09-22T10:29:53.837Z,6.27
2018-09-22T10:32:21.143Z,6.40
2018-09-22T10:34:48.049Z,8.37
2018-09-22T10:37:14.945Z,7.97
2018-09-22T10:39:41.868Z,8.13
2018-09-22T10:42:08.753Z,8.47
2018-09-22T10:44:35.665Z,7.07
2018-09-22T10:47:02.560Z,9.57
2018-09-22T10:49:29.451Z,5.87
2018-09-22T10:51:56.336Z,6.83
2018-09-22T10:54:23.304Z,6.60
2018-09-22T10:56:50.229Z,6.97
2018-09-22T10:59:17.139Z,8.00
2018-09-22T11:01:44.072Z,5.20
2018-09-22T11:04:11.039Z,7.43
2018-09-22T11:06:37.955Z,6.57
2018-09-22T11:09:06.036Z,7.07
2018-09-22T11:11:32.940Z,6.63
2018-09-22T11:13:59.876Z,5.27
2018-09-22T11:16:26.805Z,5.63
2018-09-22T11:18:53.721Z,4.87
2018-09-22T11:21:20.808Z,6.50
2018-09-22T11:23:47.736Z,5.87
2018-09-22T11:26:14.656Z,5.70
2018-09-22T11:28:41.573Z,5.97
2018-09-22T11:31:08.508Z,6.43
2018-09-22T11:33:35.433Z,7.57
2018-09-22T11:36:02.364Z,8.00
2018-09-22T11:38:29.306Z,7.77
2018-09-22T11:40:56.216Z,9.30
2018-09-22T11:43:23.145Z,8.23
2018-09-22T11:45:50.057Z,8.83
2018-09-22T11:48:17.043Z,5.60
2018-09-22T11:50:43.969Z,6.23
2018-09-22T11:53:10.909Z,6.30
2018-09-22T11:55:37.864Z,3.33
2018-09-22T11:58:04.780Z,4.20
2018-09-22T12:00:31.703Z,6.10
2018-09-22T12:02:58.632Z,5.00
2018-09-22T12:05:25.557Z,8.03
2018-09-22T12:07:52.468Z,6.40
2018-09-22T12:10:19.385Z,8.37
2018-09-22T12:12:46.304Z,7.83
2018-09-22T12:15:13.213Z,6.23
2018-09-22T12:17:40.149Z,8.90
2018-09-22T12:20:07.131Z,7.57
2018-09-22T12:22:34.029Z,8.83
2018-09-22T12:25:01.001Z,7.07
2018-09-22T12:27:27.912Z,7.87
2018-09-22T12:29:54.821Z,7.33
2018-09-22T12:32:21.729Z,9.40
2018-09-22T12:34:48.649Z,11.77
2018-09-22T12:37:15.549Z,16.20
2018-09-22T12:39:42.505Z,8.40
2018-09-22T12:42:09.456Z,7.13
2018-09-22T12:44:36.405Z,4.40
2018-09-22T12:47:03.316Z,7.03
2018-09-22T12:49:30.233Z,8.67
2018-09-22T12:51:57.137Z,6.00
2018-09-22T12:56:57.678Z,6.27
2018-09-22T12:59:24.862Z,6.77
2018-09-22T13:01:51.798Z,6.50
2018-09-22T13:04:18.759Z,8.47
2018-09-22T13:06:45.664Z,6.67
2018-09-22T13:09:12.616Z,8.23
2018-09-22T13:11:39.561Z,8.00
2018-09-22T13:14:06.569Z,10.93
2018-09-22T13:16:33.507Z,6.63
2018-09-22T13:19:00.433Z,8.37
2018-09-22T13:21:27.362Z,7.83
2018-09-22T13:23:54.280Z,8.90
2018-09-22T13:26:21.191Z,8.10
2018-09-22T13:28:48.097Z,9.00
2018-09-22T13:31:15.050Z,6.13
2018-09-22T13:33:42.014Z,5.83
2018-09-22T13:36:08.961Z,5.67
2018-09-22T13:38:35.935Z,3.97
2018-09-22T13:41:02.879Z,7.83
2018-09-22T13:43:29.857Z,5.73
2018-09-22T13:45:56.813Z,7.07
2018-09-22T13:48:23.738Z,5.63
2018-09-22T13:50:50.710Z,10.40
2018-09-22T13:53:17.725Z,8.23
2018-09-22T13:55:44.704Z,8.77
2018-09-22T13:58:11.630Z,6.63
2018-09-22T14:00:38.565Z,8.83
2018-09-22T14:03:05.613Z,9.97
2018-09-22T14:05:32.524Z,12.23
2018-09-22T14:07:59.468Z,12.50
2018-09-22T14:10:26.430Z,14.30
2018-09-22T14:12:53.324Z,9.77
2018-09-22T14:15:20.258Z,6.97
2018-09-22T14:17:47.144Z,8.13
2018-09-22T14:20:14.049Z,8.90
2018-09-22T14:22:40.944Z,7.63
2018-09-22T14:25:07.901Z,8.20
2018-09-22T14:27:34.803Z,9.90
2018-09-22T14:30:01.701Z,8.47
2018-09-22T14:32:28.616Z,8.43
2018-09-22T14:34:55.527Z,12.33
2018-09-22T14:37:22.496Z,8.87
2018-09-22T14:39:49.424Z,11.10
2018-09-22T14:42:16.337Z,15.50
2018-09-22T14:44:43.237Z,11.90
2018-09-22T14:47:10.166Z,12.03
2018-09-22T14:49:37.061Z,11.13
2018-09-22T14:52:04.001Z,10.03
2018-09-22T14:54:30.966Z,14.00
2018-09-22T14:56:58.004Z,12.83
2018-09-22T14:59:24.944Z,9.57
2018-09-22T15:01:51.855Z,10.20
2018-09-22T15:04:18.804Z,14.23
2018-09-22T15:06:45.772Z,15.60
2018-09-22T15:09:12.718Z,13.20
2018-09-22T15:11:39.661Z,13.63
2018-09-22T15:14:06.837Z,16.33
2018-09-22T15:16:33.777Z,9.87
2018-09-22T15:19:00.713Z,11.37
2018-09-22T15:21:27.631Z,10.93
2018-09-22T15:23:54.580Z,17.27
2018-09-22T15:26:21.457Z,14.37
2018-09-22T15:28:48.404Z,12.93
2018-09-22T15:31:15.328Z,13.60
2018-09-22T15:33:42.225Z,13.47
2018-09-22T15:36:09.136Z,11.47
2018-09-22T15:38:36.096Z,14.50
2018-09-22T15:41:03.045Z,17.27
2018-09-22T15:43:29.952Z,14.27
2018-09-22T15:45:56.956Z,10.07
2018-09-22T15:48:23.969Z,12.53
2018-09-22T15:50:50.837Z,11.67
2018-09-22T15:53:17.757Z,11.83
2018-09-22T15:55:44.684Z,15.43
2018-09-22T15:58:11.592Z,14.30
2018-09-22T16:00:38.518Z,11.57
2018-09-22T16:03:05.509Z,13.20
2018-09-22T16:05:32.516Z,12.90
2018-09-22T16:07:59.435Z,12.10
2018-09-22T16:10:26.362Z,13.60
2018-09-22T16:12:53.269Z,10.63
2018-09-22T16:15:20.240Z,11.70
2018-09-22T16:17:47.131Z,8.83
2018-09-22T16:20:14.057Z,12.10
2018-09-22T16:22:40.983Z,11.50
2018-09-22T16:25:07.902Z,11.33
2018-09-22T16:27:34.843Z,10.40
2018-09-22T16:30:01.802Z,11.27
2018-09-22T16:32:28.745Z,7.57
2018-09-22T16:34:55.636Z,12.17
2018-09-22T16:37:22.574Z,12.77
2018-09-22T16:39:49.480Z,9.93
2018-09-22T16:42:16.412Z,6.87
2018-09-22T16:44:43.377Z,7.93
2018-09-22T16:47:10.455Z,11.23
2018-09-22T16:49:37.390Z,11.63
2018-09-22T16:52:04.320Z,10.90
2018-09-22T16:54:31.272Z,15.33
2018-09-22T16:56:58.232Z,11.63
2018-09-22T16:59:25.173Z,10.50
2018-09-22T17:01:52.135Z,7.90
2018-09-22T17:04:19.036Z,8.63
2018-09-22T17:06:45.965Z,14.33
2018-09-22T17:09:12.886Z,14.77
2018-09-22T17:11:39.804Z,14.67
2018-09-22T17:14:06.750Z,13.50
2018-09-22T17:16:33.748Z,11.17
2018-09-22T17:19:00.656Z,12.30
2018-09-22T17:21:27.616Z,12.67
2018-09-22T17:23:54.572Z,13.77
2018-09-22T17:26:21.533Z,16.27
2018-09-22T17:28:48.484Z,12.20
2018-09-22T17:31:15.378Z,11.60
2018-09-22T17:33:42.300Z,14.87
2018-09-22T17:36:09.219Z,13.03
2018-09-22T17:38:36.168Z,14.20
2018-09-22T17:41:03.125Z,9.90
2018-09-22T17:43:30.048Z,13.33
2018-09-22T17:45:56.958Z,14.33
2018-09-22T17:48:23.896Z,12.93
2018-09-22T17:50:50.821Z,13.67
2018-09-22T17:53:17.832Z,14.90
2018-09-22T17:55:44.696Z,14.63
2018-09-22T17:58:11.664Z,13.63
2018-09-22T18:00:38.585Z,17.40
2018-09-22T18:03:05.585Z,12.73
2018-09-22T18:05:32.504Z,13.20
2018-09-22T18:07:59.444Z,14.10
2018-09-22T18:10:26.400Z,16.90
2018-09-22T18:12:53.488Z,17.77
2018-09-22T18:15:20.395Z,12.07
2018-09-22T18:17:47.334Z,16.50
2018-09-22T18:20:14.280Z,17.37
2018-09-22T18:22:41.375Z,16.23
2018-09-22T18:25:08.363Z,13.90
2018-09-22T18:27:35.268Z,12.37
2018-09-22T18:30:02.418Z,14.23
2018-09-22T18:32:29.331Z,21.07
2018-09-22T18:34:56.256Z,14.60
2018-09-22T18:37:23.198Z,15.30
2018-09-22T18:39:50.071Z,12.10
2018-09-22T18:42:16.999Z,17.30
2018-09-22T18:44:43.941Z,13.23
2018-09-22T18:47:10.843Z,19.43
2018-09-22T18:49:37.749Z,14.43
2018-09-22T18:52:04.777Z,11.63
2018-09-22T18:54:31.685Z,14.17
2018-09-22T18:56:58.602Z,13.30
2018-09-22T18:59:25.543Z,13.23
2018-09-22T19:01:52.449Z,15.43
2018-09-22T19:04:19.362Z,15.87
2018-09-22T19:06:46.277Z,14.10
2018-09-22T19:09:13.194Z,10.73
2018-09-22T19:11:40.132Z,8.97
2018-09-22T19:14:14.509Z,13.63
2018-09-22T19:16:49.330Z,17.07
2018-09-22T19:19:21.160Z,12.37
2018-09-22T19:21:53.467Z,11.57
2018-09-22T19:24:28.720Z,17.43
2018-09-22T19:27:00.258Z,18.43
2018-09-22T19:29:34.706Z,17.10
2018-09-22T19:32:08.519Z,15.23
2018-09-22T19:34:46.727Z,9.13
2018-09-22T19:37:23.083Z,9.80
2018-09-22T19:39:56.288Z,14.10
2018-09-22T19:42:28.851Z,11.70
2018-09-22T19:45:03.887Z,11.50
2018-09-22T19:47:36.429Z,12.57
2018-09-22T19:50:06.281Z,10.03
2018-09-22T19:52:50.260Z,11.33
2018-09-22T19:55:17.185Z,12.50
2018-09-22T19:57:44.313Z,8.43
2018-09-22T20:00:11.273Z,10.37
2018-09-22T20:02:38.697Z,9.97
2018-09-22T20:05:05.665Z,13.60
2018-09-22T20:07:32.643Z,14.53
2018-09-22T20:09:59.576Z,9.40
2018-09-22T20:12:26.572Z,13.00
2018-09-22T20:14:53.497Z,9.57
2018-09-22T20:17:20.491Z,9.67
2018-09-22T20:19:47.341Z,9.20
2018-09-22T20:22:14.268Z,8.03
2018-09-22T20:24:41.167Z,13.37
2018-09-22T20:27:08.096Z,16.70
2018-09-22T20:29:35.024Z,9.50
2018-09-22T20:32:01.989Z,10.23
2018-09-22T20:34:28.896Z,12.07
2018-09-22T20:36:55.813Z,13.97
2018-09-22T20:39:22.771Z,11.23
2018-09-22T20:41:49.764Z,9.17
2018-09-22T20:44:16.698Z,10.50
2018-09-22T20:46:43.630Z,10.70
2018-09-22T20:49:10.564Z,11.07
2018-09-22T20:51:37.506Z,11.40
2018-09-22T20:54:04.471Z,7.97
2018-09-22T20:56:32.017Z,11.43
2018-09-22T20:58:58.944Z,10.20
2018-09-22T21:01:25.875Z,12.17
2018-09-22T21:03:52.788Z,11.80
2018-09-22T21:06:19.744Z,7.00
2018-09-22T21:08:46.640Z,13.53
2018-09-22T21:11:13.551Z,10.93
2018-09-22T21:13:40.452Z,11.20
2018-09-22T21:16:07.400Z,12.07
2018-09-22T21:18:34.318Z,10.63
2018-09-22T21:21:01.253Z,10.17
2018-09-22T21:23:28.184Z,11.53
2018-09-22T21:25:55.132Z,12.97
2018-09-22T21:28:22.068Z,8.57
2018-09-22T21:30:49.025Z,11.43
2018-09-22T21:33:15.984Z,9.37
2018-09-22T21:35:42.902Z,15.03
2018-09-22T21:38:09.824Z,10.93
2018-09-22T21:40:36.808Z,13.33
2018-09-22T21:43:03.768Z,16.57
2018-09-22T21:45:30.676Z,15.73
2018-09-22T21:47:57.608Z,10.40
2018-09-22T21:50:24.600Z,8.27
2018-09-22T21:52:51.516Z,14.33
2018-09-22T21:55:18.416Z,12.97
2018-09-22T21:57:45.385Z,13.70
2018-09-22T22:00:12.288Z,10.97
2018-09-22T22:02:39.228Z,10.90
2018-09-22T22:05:06.139Z,10.13
2018-09-22T22:07:33.085Z,13.83
2018-09-22T22:09:59.996Z,11.80
2018-09-22T22:12:26.896Z,9.73
2018-09-22T22:14:53.800Z,12.53
2018-09-22T22:17:20.727Z,11.97
2018-09-22T22:19:47.636Z,8.47
2018-09-22T22:22:14.876Z,7.80
2018-09-22T22:24:41.772Z,10.57
2018-09-22T22:27:08.721Z,8.23
2018-09-22T22:29:35.646Z,12.07
2018-09-22T22:32:02.593Z,13.53
2018-09-22T22:34:29.517Z,15.00
2018-09-22T22:36:56.455Z,13.33
2018-09-22T22:39:23.404Z,9.00
2018-09-22T22:41:50.321Z,10.43
2018-09-22T22:44:17.285Z,9.80
2018-09-22T22:46:44.272Z,7.70
2018-09-22T22:49:11.218Z,9.47
2018-09-22T22:51:38.141Z,11.80
2018-09-22T22:54:05.060Z,14.03
2018-09-22T22:56:31.976Z,11.10
2018-09-22T22:58:58.884Z,13.13
2018-09-22T23:01:25.792Z,11.03
2018-09-22T23:03:52.718Z,14.07
2018-09-22T23:06:19.628Z,10.67
2018-09-22T23:08:46.589Z,15.00
2018-09-22T23:11:13.537Z,12.10
2018-09-22T23:13:40.560Z,11.47
2018-09-22T23:16:07.495Z,11.83
2018-09-22T23:18:34.456Z,9.63
2018-09-22T23:21:01.429Z,14.40
2018-09-22T23:23:28.324Z,9.97
2018-09-22T23:25:55.250Z,14.27
2018-09-22T23:28:22.199Z,11.33
2018-09-22T23:30:49.097Z,9.63
2018-09-22T23:33:16.045Z,13.57
2018-09-22T23:35:46.149Z,15.83
2018-09-22T23:38:13.060Z,8.50
2018-09-22T23:40:39.970Z,13.73
2018-09-22T23:43:06.931Z,14.57
2018-09-22T23:45:33.839Z,10.67
2018-09-22T23:48:00.861Z,10.37
2018-09-22T23:50:27.828Z,13.87
2018-09-22T23:52:54.750Z,12.60
2018-09-22T23:55:21.672Z,12.70
2018-09-22T23:57:48.588Z,15.27
